sensor_id;sensor_type;location;lat;lon;timestamp;P1;durP1;ratioP1;P2;durP2;ratioP2
54261;SDS011;40174;52.364;6.452;2023-02-28T00:02:25;8.23;;;2.88;;
54261;SDS011;40174;52.364;6.452;2023-02-28T00:04:52;10.20;;;2.95;;
54261;SDS011;40174;52.364;6.452;2023-02-28T00:07:26;8.32;;;3.13;;
54261;SDS011;40174;52.364;6.452;2023-02-28T00:09:52;6.25;;;2.65;;
54261;SDS011;40174;52.364;6.452;2023-02-28T00:12:20;9.18;;;2.90;;
54261;SDS011;40174;52.364;6.452;2023-02-28T00:14:47;7.43;;;3.40;;
54261;SDS011;40174;52.364;6.452;2023-02-28T00:17:14;7.03;;;2.80;;
54261;SDS011;40174;52.364;6.452;2023-02-28T00:19:42;8.38;;;2.90;;
54261;SDS011;40174;52.364;6.452;2023-02-28T00:22:09;7.85;;;2.72;;
54261;SDS011;40174;52.364;6.452;2023-02-28T00:24:36;7.07;;;2.80;;
54261;SDS011;40174;52.364;6.452;2023-02-28T00:27:03;6.78;;;2.40;;
54261;SDS011;40174;52.364;6.452;2023-02-28T00:29:30;8.40;;;3.00;;
54261;SDS011;40174;52.364;6.452;2023-02-28T00:31:57;6.13;;;2.88;;
54261;SDS011;40174;52.364;6.452;2023-02-28T00:34:24;9.43;;;2.45;;
54261;SDS011;40174;52.364;6.452;2023-02-28T00:36:51;7.28;;;2.63;;
54261;SDS011;40174;52.364;6.452;2023-02-28T00:39:18;6.53;;;2.20;;
54261;SDS011;40174;52.364;6.452;2023-02-28T00:41:45;4.18;;;2.42;;
54261;SDS011;40174;52.364;6.452;2023-02-28T00:44:12;8.35;;;2.33;;
54261;SDS011;40174;52.364;6.452;2023-02-28T00:46:40;5.85;;;2.00;;
54261;SDS011;40174;52.364;6.452;2023-02-28T00:49:07;4.60;;;2.53;;
54261;SDS011;40174;52.364;6.452;2023-02-28T00:51:34;6.78;;;2.78;;
54261;SDS011;40174;52.364;6.452;2023-02-28T00:54:01;9.63;;;3.13;;
54261;SDS011;40174;52.364;6.452;2023-02-28T00:56:27;8.00;;;2.70;;
54261;SDS011;40174;52.364;6.452;2023-02-28T00:58:54;7.13;;;3.05;;
54261;SDS011;40174;52.364;6.452;2023-02-28T01:01:22;7.32;;;2.35;;
54261;SDS011;40174;52.364;6.452;2023-02-28T01:03:50;9.02;;;2.67;;
54261;SDS011;40174;52.364;6.452;2023-02-28T01:06:16;5.50;;;2.30;;
54261;SDS011;40174;52.364;6.452;2023-02-28T01:08:43;8.00;;;2.88;;
54261;SDS011;40174;52.364;6.452;2023-02-28T01:11:10;7.03;;;2.47;;
54261;SDS011;40174;52.364;6.452;2023-02-28T01:13:39;7.32;;;2.65;;
54261;SDS011;40174;52.364;6.452;2023-02-28T01:16:07;5.80;;;2.55;;
54261;SDS011;40174;52.364;6.452;2023-02-28T01:18:34;9.38;;;2.67;;
54261;SDS011;40174;52.364;6.452;2023-02-28T01:21:04;6.18;;;3.00;;
54261;SDS011;40174;52.364;6.452;2023-02-28T01:23:31;7.03;;;2.53;;
54261;SDS011;40174;52.364;6.452;2023-02-28T01:26:02;8.65;;;2.90;;
54261;SDS011;40174;52.364;6.452;2023-02-28T01:28:30;5.68;;;2.60;;
54261;SDS011;40174;52.364;6.452;2023-02-28T01:30:56;8.10;;;2.60;;
54261;SDS011;40174;52.364;6.452;2023-02-28T01:33:23;5.80;;;2.15;;
54261;SDS011;40174;52.364;6.452;2023-02-28T01:35:57;5.53;;;2.42;;
54261;SDS011;40174;52.364;6.452;2023-02-28T01:38:25;5.78;;;2.60;;
54261;SDS011;40174;52.364;6.452;2023-02-28T01:40:53;6.82;;;3.50;;
54261;SDS011;40174;52.364;6.452;2023-02-28T01:43:21;6.68;;;2.88;;
54261;SDS011;40174;52.364;6.452;2023-02-28T01:45:49;12.13;;;2.67;;
54261;SDS011;40174;52.364;6.452;2023-02-28T01:48:16;9.55;;;3.30;;
54261;SDS011;40174;52.364;6.452;2023-02-28T01:50:45;6.20;;;2.55;;
54261;SDS011;40174;52.364;6.452;2023-02-28T01:53:14;8.55;;;2.80;;
54261;SDS011;40174;52.364;6.452;2023-02-28T01:55:47;7.30;;;3.03;;
54261;SDS011;40174;52.364;6.452;2023-02-28T01:58:19;6.28;;;2.88;;
54261;SDS011;40174;52.364;6.452;2023-02-28T02:00:46;5.75;;;2.83;;
54261;SDS011;40174;52.364;6.452;2023-02-28T02:03:14;6.30;;;2.90;;
54261;SDS011;40174;52.364;6.452;2023-02-28T02:05:45;7.07;;;2.78;;
54261;SDS011;40174;52.364;6.452;2023-02-28T02:08:15;7.50;;;3.00;;
54261;SDS011;40174;52.364;6.452;2023-02-28T02:10:44;7.70;;;2.50;;
54261;SDS011;40174;52.364;6.452;2023-02-28T02:13:19;4.30;;;2.00;;
54261;SDS011;40174;52.364;6.452;2023-02-28T02:15:57;7.97;;;2.75;;
54261;SDS011;40174;52.364;6.452;2023-02-28T02:18:33;7.40;;;2.97;;
54261;SDS011;40174;52.364;6.452;2023-02-28T02:30:20;10.10;;;3.10;;
54261;SDS011;40174;52.364;6.452;2023-02-28T02:33:18;7.55;;;2.60;;
54261;SDS011;40174;52.364;6.452;2023-02-28T02:36:12;7.75;;;3.13;;
54261;SDS011;40174;52.364;6.452;2023-02-28T02:38:46;7.95;;;3.45;;
54261;SDS011;40174;52.364;6.452;2023-02-28T02:41:17;10.20;;;3.03;;
54261;SDS011;40174;52.364;6.452;2023-02-28T02:43:50;6.22;;;2.75;;
54261;SDS011;40174;52.364;6.452;2023-02-28T02:46:20;7.90;;;3.08;;
54261;SDS011;40174;52.364;6.452;2023-02-28T02:48:49;6.90;;;3.00;;
54261;SDS011;40174;52.364;6.452;2023-02-28T02:51:22;7.93;;;2.90;;
54261;SDS011;40174;52.364;6.452;2023-02-28T02:53:52;7.50;;;3.05;;
54261;SDS011;40174;52.364;6.452;2023-02-28T02:56:23;4.85;;;2.40;;
54261;SDS011;40174;52.364;6.452;2023-02-28T02:58:55;7.88;;;3.35;;
54261;SDS011;40174;52.364;6.452;2023-02-28T03:01:27;6.40;;;2.58;;
54261;SDS011;40174;52.364;6.452;2023-02-28T03:03:57;9.20;;;3.03;;
54261;SDS011;40174;52.364;6.452;2023-02-28T03:06:27;8.10;;;3.30;;
54261;SDS011;40174;52.364;6.452;2023-02-28T03:08:54;7.88;;;2.67;;
54261;SDS011;40174;52.364;6.452;2023-02-28T03:11:21;7.80;;;2.83;;
54261;SDS011;40174;52.364;6.452;2023-02-28T03:16:48;9.60;;;2.97;;
54261;SDS011;40174;52.364;6.452;2023-02-28T03:19:28;8.30;;;3.40;;
54261;SDS011;40174;52.364;6.452;2023-02-28T03:22:17;10.15;;;2.95;;
54261;SDS011;40174;52.364;6.452;2023-02-28T03:24:52;6.57;;;3.05;;
54261;SDS011;40174;52.364;6.452;2023-02-28T03:27:24;5.28;;;2.33;;
54261;SDS011;40174;52.364;6.452;2023-02-28T03:29:56;6.30;;;2.38;;
54261;SDS011;40174;52.364;6.452;2023-02-28T03:32:28;6.30;;;2.83;;
54261;SDS011;40174;52.364;6.452;2023-02-28T03:35:00;7.28;;;2.60;;
54261;SDS011;40174;52.364;6.452;2023-02-28T03:37:34;7.60;;;3.53;;
54261;SDS011;40174;52.364;6.452;2023-02-28T03:40:05;3.95;;;1.80;;
54261;SDS011;40174;52.364;6.452;2023-02-28T03:42:37;4.72;;;2.28;;
54261;SDS011;40174;52.364;6.452;2023-02-28T03:45:09;5.38;;;2.47;;
54261;SDS011;40174;52.364;6.452;2023-02-28T03:47:39;7.32;;;2.63;;
54261;SDS011;40174;52.364;6.452;2023-02-28T03:50:10;6.20;;;2.50;;
54261;SDS011;40174;52.364;6.452;2023-02-28T03:52:46;7.93;;;2.78;;
54261;SDS011;40174;52.364;6.452;2023-02-28T03:55:16;6.10;;;2.85;;
54261;SDS011;40174;52.364;6.452;2023-02-28T03:57:47;7.82;;;3.13;;
54261;SDS011;40174;52.364;6.452;2023-02-28T04:00:25;5.78;;;2.33;;
54261;SDS011;40174;52.364;6.452;2023-02-28T04:02:57;5.20;;;2.60;;
54261;SDS011;40174;52.364;6.452;2023-02-28T04:05:24;5.78;;;2.15;;
54261;SDS011;40174;52.364;6.452;2023-02-28T04:07:54;6.75;;;2.25;;
54261;SDS011;40174;52.364;6.452;2023-02-28T04:10:21;7.32;;;2.35;;
54261;SDS011;40174;52.364;6.452;2023-02-28T04:12:48;8.90;;;2.85;;
54261;SDS011;40174;52.364;6.452;2023-02-28T04:15:14;7.00;;;2.60;;
54261;SDS011;40174;52.364;6.452;2023-02-28T04:17:41;5.03;;;2.50;;
54261;SDS011;40174;52.364;6.452;2023-02-28T04:20:08;9.15;;;3.00;;
54261;SDS011;40174;52.364;6.452;2023-02-28T04:22:36;7.38;;;2.40;;
54261;SDS011;40174;52.364;6.452;2023-02-28T04:25:05;5.85;;;2.58;;
54261;SDS011;40174;52.364;6.452;2023-02-28T04:27:33;6.07;;;2.53;;
54261;SDS011;40174;52.364;6.452;2023-02-28T04:30:00;5.35;;;2.10;;
54261;SDS011;40174;52.364;6.452;2023-02-28T04:32:26;5.13;;;2.67;;
54261;SDS011;40174;52.364;6.452;2023-02-28T04:34:53;5.80;;;2.03;;
54261;SDS011;40174;52.364;6.452;2023-02-28T04:37:20;5.53;;;2.53;;
54261;SDS011;40174;52.364;6.452;2023-02-28T04:39:52;6.38;;;2.15;;
54261;SDS011;40174;52.364;6.452;2023-02-28T04:42:21;6.40;;;2.42;;
54261;SDS011;40174;52.364;6.452;2023-02-28T04:44:47;5.05;;;2.15;;
54261;SDS011;40174;52.364;6.452;2023-02-28T04:47:14;7.32;;;2.40;;
54261;SDS011;40174;52.364;6.452;2023-02-28T04:49:40;9.23;;;2.90;;
54261;SDS011;40174;52.364;6.452;2023-02-28T04:52:07;5.72;;;2.33;;
54261;SDS011;40174;52.364;6.452;2023-02-28T04:54:35;5.80;;;2.78;;
54261;SDS011;40174;52.364;6.452;2023-02-28T04:57:03;5.95;;;2.38;;
54261;SDS011;40174;52.364;6.452;2023-02-28T04:59:32;4.10;;;2.10;;
54261;SDS011;40174;52.364;6.452;2023-02-28T05:01:59;8.52;;;2.30;;
54261;SDS011;40174;52.364;6.452;2023-02-28T05:04:25;5.55;;;2.78;;
54261;SDS011;40174;52.364;6.452;2023-02-28T05:06:52;6.10;;;2.42;;
54261;SDS011;40174;52.364;6.452;2023-02-28T05:09:18;6.88;;;2.47;;
54261;SDS011;40174;52.364;6.452;2023-02-28T05:11:45;6.75;;;2.25;;
54261;SDS011;40174;52.364;6.452;2023-02-28T05:14:13;4.80;;;2.67;;
54261;SDS011;40174;52.364;6.452;2023-02-28T05:16:41;6.38;;;2.53;;
54261;SDS011;40174;52.364;6.452;2023-02-28T05:19:08;4.28;;;2.10;;
54261;SDS011;40174;52.364;6.452;2023-02-28T05:21:35;5.97;;;2.13;;
54261;SDS011;40174;52.364;6.452;2023-02-28T05:24:04;6.82;;;2.35;;
54261;SDS011;40174;52.364;6.452;2023-02-28T05:26:33;6.13;;;2.17;;
54261;SDS011;40174;52.364;6.452;2023-02-28T05:29:01;5.95;;;2.30;;
54261;SDS011;40174;52.364;6.452;2023-02-28T05:31:27;5.53;;;2.20;;
54261;SDS011;40174;52.364;6.452;2023-02-28T05:33:55;5.63;;;2.42;;
54261;SDS011;40174;52.364;6.452;2023-02-28T05:36:22;6.97;;;2.70;;
54261;SDS011;40174;52.364;6.452;2023-02-28T05:38:49;5.78;;;2.50;;
54261;SDS011;40174;52.364;6.452;2023-02-28T05:41:17;6.05;;;2.38;;
54261;SDS011;40174;52.364;6.452;2023-02-28T05:43:45;5.75;;;2.38;;
54261;SDS011;40174;52.364;6.452;2023-02-28T05:46:12;6.60;;;2.25;;
54261;SDS011;40174;52.364;6.452;2023-02-28T05:48:40;7.32;;;2.35;;
54261;SDS011;40174;52.364;6.452;2023-02-28T05:51:09;5.13;;;2.05;;
54261;SDS011;40174;52.364;6.452;2023-02-28T05:53:36;4.28;;;2.05;;
54261;SDS011;40174;52.364;6.452;2023-02-28T05:56:03;5.00;;;1.95;;
54261;SDS011;40174;52.364;6.452;2023-02-28T05:58:30;5.95;;;2.50;;
54261;SDS011;40174;52.364;6.452;2023-02-28T06:00:57;4.82;;;2.20;;
54261;SDS011;40174;52.364;6.452;2023-02-28T06:03:24;6.43;;;2.00;;
54261;SDS011;40174;52.364;6.452;2023-02-28T06:05:51;3.85;;;1.85;;
54261;SDS011;40174;52.364;6.452;2023-02-28T06:08:19;4.35;;;2.25;;
54261;SDS011;40174;52.364;6.452;2023-02-28T06:10:46;4.72;;;2.15;;
54261;SDS011;40174;52.364;6.452;2023-02-28T06:13:13;5.65;;;2.15;;
54261;SDS011;40174;52.364;6.452;2023-02-28T06:15:40;3.83;;;1.75;;
54261;SDS011;40174;52.364;6.452;2023-02-28T06:18:07;5.53;;;2.63;;
54261;SDS011;40174;52.364;6.452;2023-02-28T06:20:34;7.03;;;2.72;;
54261;SDS011;40174;52.364;6.452;2023-02-28T06:23:01;4.88;;;2.00;;
54261;SDS011;40174;52.364;6.452;2023-02-28T06:25:29;3.90;;;1.95;;
54261;SDS011;40174;52.364;6.452;2023-02-28T06:27:56;8.10;;;1.88;;
54261;SDS011;40174;52.364;6.452;2023-02-28T06:30:22;6.93;;;2.30;;
54261;SDS011;40174;52.364;6.452;2023-02-28T06:32:51;6.28;;;2.08;;
54261;SDS011;40174;52.364;6.452;2023-02-28T06:35:18;7.45;;;1.88;;
54261;SDS011;40174;52.364;6.452;2023-02-28T06:37:45;9.65;;;2.10;;
54261;SDS011;40174;52.364;6.452;2023-02-28T06:40:12;6.00;;;1.90;;
54261;SDS011;40174;52.364;6.452;2023-02-28T06:42:40;4.60;;;2.03;;
54261;SDS011;40174;52.364;6.452;2023-02-28T06:45:07;3.53;;;1.52;;
54261;SDS011;40174;52.364;6.452;2023-02-28T06:47:35;4.03;;;1.75;;
54261;SDS011;40174;52.364;6.452;2023-02-28T06:50:02;4.07;;;1.90;;
54261;SDS011;40174;52.364;6.452;2023-02-28T06:52:29;4.05;;;1.75;;
54261;SDS011;40174;52.364;6.452;2023-02-28T06:54:56;5.63;;;2.13;;
54261;SDS011;40174;52.364;6.452;2023-02-28T06:57:27;3.90;;;1.92;;
54261;SDS011;40174;52.364;6.452;2023-02-28T06:59:57;5.78;;;2.22;;
54261;SDS011;40174;52.364;6.452;2023-02-28T07:02:24;6.05;;;1.85;;
54261;SDS011;40174;52.364;6.452;2023-02-28T07:04:51;5.38;;;2.22;;
54261;SDS011;40174;52.364;6.452;2023-02-28T07:07:18;6.35;;;2.22;;
54261;SDS011;40174;52.364;6.452;2023-02-28T07:09:44;6.57;;;2.35;;
54261;SDS011;40174;52.364;6.452;2023-02-28T07:12:11;7.68;;;2.85;;
54261;SDS011;40174;52.364;6.452;2023-02-28T07:14:37;3.63;;;2.20;;
54261;SDS011;40174;52.364;6.452;2023-02-28T07:17:07;6.45;;;2.42;;
54261;SDS011;40174;52.364;6.452;2023-02-28T07:19:34;6.10;;;2.22;;
54261;SDS011;40174;52.364;6.452;2023-02-28T07:22:00;4.65;;;2.58;;
54261;SDS011;40174;52.364;6.452;2023-02-28T07:24:27;6.40;;;2.50;;
54261;SDS011;40174;52.364;6.452;2023-02-28T07:26:54;6.70;;;2.70;;
54261;SDS011;40174;52.364;6.452;2023-02-28T07:29:21;5.03;;;2.83;;
54261;SDS011;40174;52.364;6.452;2023-02-28T07:31:48;6.90;;;2.33;;
54261;SDS011;40174;52.364;6.452;2023-02-28T07:34:17;5.40;;;2.60;;
54261;SDS011;40174;52.364;6.452;2023-02-28T07:36:43;8.48;;;2.55;;
54261;SDS011;40174;52.364;6.452;2023-02-28T07:39:10;8.13;;;3.22;;
54261;SDS011;40174;52.364;6.452;2023-02-28T07:41:36;6.57;;;2.70;;
54261;SDS011;40174;52.364;6.452;2023-02-28T07:44:08;8.50;;;3.63;;
54261;SDS011;40174;52.364;6.452;2023-02-28T07:46:35;6.45;;;2.95;;
54261;SDS011;40174;52.364;6.452;2023-02-28T07:49:02;6.97;;;3.00;;
54261;SDS011;40174;52.364;6.452;2023-02-28T07:51:30;8.95;;;3.88;;
54261;SDS011;40174;52.364;6.452;2023-02-28T07:53:57;9.82;;;3.38;;
54261;SDS011;40174;52.364;6.452;2023-02-28T07:56:24;7.57;;;3.20;;
54261;SDS011;40174;52.364;6.452;2023-02-28T07:58:50;7.78;;;3.00;;
54261;SDS011;40174;52.364;6.452;2023-02-28T08:01:17;12.02;;;3.17;;
54261;SDS011;40174;52.364;6.452;2023-02-28T08:03:44;9.35;;;2.92;;
54261;SDS011;40174;52.364;6.452;2023-02-28T08:06:14;10.65;;;3.10;;
54261;SDS011;40174;52.364;6.452;2023-02-28T08:08:44;6.45;;;2.63;;
54261;SDS011;40174;52.364;6.452;2023-02-28T08:11:11;7.75;;;2.78;;
54261;SDS011;40174;52.364;6.452;2023-02-28T08:13:37;7.07;;;2.67;;
54261;SDS011;40174;52.364;6.452;2023-02-28T08:16:04;5.25;;;2.15;;
54261;SDS011;40174;52.364;6.452;2023-02-28T08:18:31;6.60;;;2.30;;
54261;SDS011;40174;52.364;6.452;2023-02-28T08:20:59;5.32;;;2.15;;
54261;SDS011;40174;52.364;6.452;2023-02-28T08:23:25;6.25;;;1.77;;
54261;SDS011;40174;52.364;6.452;2023-02-28T08:25:54;4.60;;;1.75;;
54261;SDS011;40174;52.364;6.452;2023-02-28T08:28:21;3.22;;;1.10;;
54261;SDS011;40174;52.364;6.452;2023-02-28T08:30:47;2.78;;;1.17;;
54261;SDS011;40174;52.364;6.452;2023-02-28T08:33:15;4.57;;;1.50;;
54261;SDS011;40174;52.364;6.452;2023-02-28T08:35:41;3.28;;;1.40;;
54261;SDS011;40174;52.364;6.452;2023-02-28T08:38:08;3.45;;;1.40;;
54261;SDS011;40174;52.364;6.452;2023-02-28T08:40:34;5.10;;;1.33;;
54261;SDS011;40174;52.364;6.452;2023-02-28T08:43:02;3.22;;;1.40;;
54261;SDS011;40174;52.364;6.452;2023-02-28T08:45:29;2.42;;;1.30;;
54261;SDS011;40174;52.364;6.452;2023-02-28T08:47:56;2.92;;;1.20;;
54261;SDS011;40174;52.364;6.452;2023-02-28T08:50:22;8.43;;;1.48;;
54261;SDS011;40174;52.364;6.452;2023-02-28T08:52:49;1.92;;;1.00;;
54261;SDS011;40174;52.364;6.452;2023-02-28T08:55:15;2.35;;;0.90;;
54261;SDS011;40174;52.364;6.452;2023-02-28T08:57:42;3.70;;;0.95;;
54261;SDS011;40174;52.364;6.452;2023-02-28T09:00:11;1.67;;;0.82;;
54261;SDS011;40174;52.364;6.452;2023-02-28T09:02:39;1.42;;;0.90;;
54261;SDS011;40174;52.364;6.452;2023-02-28T09:05:08;1.73;;;1.00;;
54261;SDS011;40174;52.364;6.452;2023-02-28T09:07:34;1.55;;;0.95;;
54261;SDS011;40174;52.364;6.452;2023-02-28T09:10:01;1.95;;;0.75;;
54261;SDS011;40174;52.364;6.452;2023-02-28T09:12:28;1.83;;;0.90;;
54261;SDS011;40174;52.364;6.452;2023-02-28T09:14:59;3.42;;;1.00;;
54261;SDS011;40174;52.364;6.452;2023-02-28T09:17:27;1.73;;;0.90;;
54261;SDS011;40174;52.364;6.452;2023-02-28T09:19:54;1.70;;;0.80;;
54261;SDS011;40174;52.364;6.452;2023-02-28T09:22:20;4.50;;;1.10;;
54261;SDS011;40174;52.364;6.452;2023-02-28T09:24:47;2.25;;;0.90;;
54261;SDS011;40174;52.364;6.452;2023-02-28T09:27:14;3.40;;;0.85;;
54261;SDS011;40174;52.364;6.452;2023-02-28T09:29:40;1.58;;;0.75;;
54261;SDS011;40174;52.364;6.452;2023-02-28T09:32:07;1.50;;;0.60;;
54261;SDS011;40174;52.364;6.452;2023-02-28T09:34:35;0.88;;;0.70;;
54261;SDS011;40174;52.364;6.452;2023-02-28T09:37:03;3.47;;;0.88;;
54261;SDS011;40174;52.364;6.452;2023-02-28T09:39:29;2.38;;;0.82;;
54261;SDS011;40174;52.364;6.452;2023-02-28T09:41:56;4.90;;;1.17;;
54261;SDS011;40174;52.364;6.452;2023-02-28T09:44:26;1.63;;;0.73;;
54261;SDS011;40174;52.364;6.452;2023-02-28T09:46:56;3.80;;;0.77;;
54261;SDS011;40174;52.364;6.452;2023-02-28T09:49:27;1.90;;;0.75;;
54261;SDS011;40174;52.364;6.452;2023-02-28T09:52:03;1.27;;;0.70;;
54261;SDS011;40174;52.364;6.452;2023-02-28T09:54:34;1.10;;;0.60;;
54261;SDS011;40174;52.364;6.452;2023-02-28T09:57:04;2.70;;;0.52;;
54261;SDS011;40174;52.364;6.452;2023-02-28T09:59:37;3.20;;;0.80;;
54261;SDS011;40174;52.364;6.452;2023-02-28T10:02:15;1.95;;;0.80;;
54261;SDS011;40174;52.364;6.452;2023-02-28T10:05:04;2.45;;;0.95;;
54261;SDS011;40174;52.364;6.452;2023-02-28T10:07:44;1.80;;;0.70;;
54261;SDS011;40174;52.364;6.452;2023-02-28T10:10:21;2.28;;;0.68;;
54261;SDS011;40174;52.364;6.452;2023-02-28T10:12:54;4.25;;;0.82;;
54261;SDS011;40174;52.364;6.452;2023-02-28T10:15:24;1.20;;;0.65;;
54261;SDS011;40174;52.364;6.452;2023-02-28T10:17:53;2.05;;;0.80;;
54261;SDS011;40174;52.364;6.452;2023-02-28T10:20:23;1.77;;;0.70;;
54261;SDS011;40174;52.364;6.452;2023-02-28T10:22:58;1.60;;;0.77;;
54261;SDS011;40174;52.364;6.452;2023-02-28T10:25:32;2.05;;;0.73;;
54261;SDS011;40174;52.364;6.452;2023-02-28T10:28:04;1.40;;;0.85;;
54261;SDS011;40174;52.364;6.452;2023-02-28T10:30:36;3.70;;;0.80;;
54261;SDS011;40174;52.364;6.452;2023-02-28T10:33:05;1.27;;;0.65;;
54261;SDS011;40174;52.364;6.452;2023-02-28T10:35:31;1.80;;;0.73;;
54261;SDS011;40174;52.364;6.452;2023-02-28T10:38:00;1.15;;;0.68;;
54261;SDS011;40174;52.364;6.452;2023-02-28T10:40:40;0.80;;;0.60;;
54261;SDS011;40174;52.364;6.452;2023-02-28T10:43:17;2.38;;;0.70;;
54261;SDS011;40174;52.364;6.452;2023-02-28T10:45:53;1.95;;;1.08;;
54261;SDS011;40174;52.364;6.452;2023-02-28T10:48:32;3.22;;;0.80;;
54261;SDS011;40174;52.364;6.452;2023-02-28T10:51:02;3.47;;;0.80;;
54261;SDS011;40174;52.364;6.452;2023-02-28T10:53:35;3.22;;;0.70;;
54261;SDS011;40174;52.364;6.452;2023-02-28T10:56:08;2.03;;;0.95;;
54261;SDS011;40174;52.364;6.452;2023-02-28T10:58:46;4.90;;;0.90;;
54261;SDS011;40174;52.364;6.452;2023-02-28T11:01:16;3.05;;;0.80;;
54261;SDS011;40174;52.364;6.452;2023-02-28T11:03:44;2.83;;;1.30;;
54261;SDS011;40174;52.364;6.452;2023-02-28T11:06:13;4.35;;;1.20;;
54261;SDS011;40174;52.364;6.452;2023-02-28T11:08:45;4.00;;;0.80;;
54261;SDS011;40174;52.364;6.452;2023-02-28T11:11:14;1.90;;;0.90;;
54261;SDS011;40174;52.364;6.452;2023-02-28T11:13:42;1.35;;;0.60;;
54261;SDS011;40174;52.364;6.452;2023-02-28T11:16:11;1.95;;;0.82;;
54261;SDS011;40174;52.364;6.452;2023-02-28T11:18:40;1.40;;;0.90;;
54261;SDS011;40174;52.364;6.452;2023-02-28T11:21:15;2.92;;;0.98;;
54261;SDS011;40174;52.364;6.452;2023-02-28T11:26:14;1.80;;;0.82;;
54261;SDS011;40174;52.364;6.452;2023-02-28T11:28:42;1.02;;;0.70;;
54261;SDS011;40174;52.364;6.452;2023-02-28T11:31:16;2.88;;;1.05;;
54261;SDS011;40174;52.364;6.452;2023-02-28T11:33:46;3.25;;;1.08;;
54261;SDS011;40174;52.364;6.452;2023-02-28T11:36:16;4.97;;;1.00;;
54261;SDS011;40174;52.364;6.452;2023-02-28T11:38:47;3.13;;;1.08;;
54261;SDS011;40174;52.364;6.452;2023-02-28T11:41:21;2.53;;;0.70;;
54261;SDS011;40174;52.364;6.452;2023-02-28T11:43:59;5.15;;;1.23;;
54261;SDS011;40174;52.364;6.452;2023-02-28T11:46:33;4.03;;;1.10;;
54261;SDS011;40174;52.364;6.452;2023-02-28T11:49:12;1.70;;;0.70;;
54261;SDS011;40174;52.364;6.452;2023-02-28T11:51:47;2.60;;;0.88;;
54261;SDS011;40174;52.364;6.452;2023-02-28T11:54:23;2.40;;;0.70;;
54261;SDS011;40174;52.364;6.452;2023-02-28T11:57:03;1.65;;;0.80;;
54261;SDS011;40174;52.364;6.452;2023-02-28T11:59:47;2.92;;;1.10;;
54261;SDS011;40174;52.364;6.452;2023-02-28T12:02:25;1.45;;;0.82;;
54261;SDS011;40174;52.364;6.452;2023-02-28T12:05:17;1.27;;;0.90;;
54261;SDS011;40174;52.364;6.452;2023-02-28T12:07:58;3.88;;;1.27;;
54261;SDS011;40174;52.364;6.452;2023-02-28T12:10:35;1.92;;;1.02;;
54261;SDS011;40174;52.364;6.452;2023-02-28T12:13:12;1.60;;;1.10;;
54261;SDS011;40174;52.364;6.452;2023-02-28T12:16:07;2.92;;;1.17;;
54261;SDS011;40174;52.364;6.452;2023-02-28T12:21:55;1.75;;;0.80;;
54261;SDS011;40174;52.364;6.452;2023-02-28T12:24:47;2.25;;;1.10;;
54261;SDS011;40174;52.364;6.452;2023-02-28T12:27:24;2.42;;;0.90;;
54261;SDS011;40174;52.364;6.452;2023-02-28T12:29:56;1.85;;;0.90;;
54261;SDS011;40174;52.364;6.452;2023-02-28T12:32:29;2.03;;;1.00;;
54261;SDS011;40174;52.364;6.452;2023-02-28T12:35:00;1.98;;;1.00;;
54261;SDS011;40174;52.364;6.452;2023-02-28T12:37:31;2.28;;;1.00;;
54261;SDS011;40174;52.364;6.452;2023-02-28T12:40:06;4.38;;;1.17;;
54261;SDS011;40174;52.364;6.452;2023-02-28T12:42:40;2.83;;;1.13;;
54261;SDS011;40174;52.364;6.452;2023-02-28T12:45:12;1.83;;;1.00;;
54261;SDS011;40174;52.364;6.452;2023-02-28T12:47:44;3.85;;;1.30;;
54261;SDS011;40174;52.364;6.452;2023-02-28T12:50:13;4.05;;;1.40;;
54261;SDS011;40174;52.364;6.452;2023-02-28T12:52:41;1.20;;;0.88;;
54261;SDS011;40174;52.364;6.452;2023-02-28T12:55:19;1.92;;;0.95;;
54261;SDS011;40174;52.364;6.452;2023-02-28T12:57:54;3.80;;;0.90;;
54261;SDS011;40174;52.364;6.452;2023-02-28T13:00:29;2.13;;;0.90;;
54261;SDS011;40174;52.364;6.452;2023-02-28T13:05:46;3.25;;;0.80;;
54261;SDS011;40174;52.364;6.452;2023-02-28T13:08:35;2.72;;;0.77;;
54261;SDS011;40174;52.364;6.452;2023-02-28T13:11:24;1.85;;;0.80;;
54261;SDS011;40174;52.364;6.452;2023-02-28T13:13:58;4.55;;;1.00;;
54261;SDS011;40174;52.364;6.452;2023-02-28T13:16:27;3.17;;;1.25;;
54261;SDS011;40174;52.364;6.452;2023-02-28T13:18:56;2.70;;;0.93;;
54261;SDS011;40174;52.364;6.452;2023-02-28T13:21:41;2.67;;;1.00;;
54261;SDS011;40174;52.364;6.452;2023-02-28T13:24:10;2.78;;;0.93;;
54261;SDS011;40174;52.364;6.452;2023-02-28T13:29:43;1.52;;;0.73;;
54261;SDS011;40174;52.364;6.452;2023-02-28T13:35:13;1.20;;;0.75;;
54261;SDS011;40174;52.364;6.452;2023-02-28T13:38:13;2.80;;;1.05;;
54261;SDS011;40174;52.364;6.452;2023-02-28T13:40:43;2.90;;;0.90;;
54261;SDS011;40174;52.364;6.452;2023-02-28T13:43:10;2.83;;;1.00;;
54261;SDS011;40174;52.364;6.452;2023-02-28T13:45:38;2.08;;;1.10;;
54261;SDS011;40174;52.364;6.452;2023-02-28T13:48:15;1.70;;;0.90;;
54261;SDS011;40174;52.364;6.452;2023-02-28T13:50:44;1.33;;;0.85;;
54261;SDS011;40174;52.364;6.452;2023-02-28T13:56:01;2.33;;;0.95;;
54261;SDS011;40174;52.364;6.452;2023-02-28T13:58:36;2.22;;;0.85;;
54261;SDS011;40174;52.364;6.452;2023-02-28T14:01:20;3.20;;;1.13;;
54261;SDS011;40174;52.364;6.452;2023-02-28T14:07:03;2.38;;;1.08;;
54261;SDS011;40174;52.364;6.452;2023-02-28T14:09:31;2.22;;;0.98;;
54261;SDS011;40174;52.364;6.452;2023-02-28T14:15:00;3.05;;;0.88;;
54261;SDS011;40174;52.364;6.452;2023-02-28T14:17:29;4.65;;;1.70;;
54261;SDS011;40174;52.364;6.452;2023-02-28T14:19:56;2.97;;;1.25;;
54261;SDS011;40174;52.364;6.452;2023-02-28T14:25:27;1.98;;;1.15;;
54261;SDS011;40174;52.364;6.452;2023-02-28T14:30:43;3.17;;;0.80;;
54261;SDS011;40174;52.364;6.452;2023-02-28T14:33:25;2.13;;;0.82;;
54261;SDS011;40174;52.364;6.452;2023-02-28T14:36:06;2.88;;;1.00;;
54261;SDS011;40174;52.364;6.452;2023-02-28T14:38:40;3.83;;;1.27;;
54261;SDS011;40174;52.364;6.452;2023-02-28T14:41:15;2.47;;;1.00;;
54261;SDS011;40174;52.364;6.452;2023-02-28T14:43:53;5.15;;;1.27;;
54261;SDS011;40174;52.364;6.452;2023-02-28T14:46:22;3.80;;;1.10;;
54261;SDS011;40174;52.364;6.452;2023-02-28T14:48:53;2.70;;;1.30;;
54261;SDS011;40174;52.364;6.452;2023-02-28T14:51:20;1.70;;;1.10;;
54261;SDS011;40174;52.364;6.452;2023-02-28T14:53:49;2.55;;;1.10;;
54261;SDS011;40174;52.364;6.452;2023-02-28T14:56:22;1.70;;;1.05;;
54261;SDS011;40174;52.364;6.452;2023-02-28T14:58:51;5.82;;;1.15;;
54261;SDS011;40174;52.364;6.452;2023-02-28T15:01:19;3.70;;;1.15;;
54261;SDS011;40174;52.364;6.452;2023-02-28T15:03:47;1.73;;;1.00;;
54261;SDS011;40174;52.364;6.452;2023-02-28T15:06:23;4.50;;;1.13;;
54261;SDS011;40174;52.364;6.452;2023-02-28T15:11:40;1.67;;;1.13;;
54261;SDS011;40174;52.364;6.452;2023-02-28T15:14:13;3.35;;;1.27;;
54261;SDS011;40174;52.364;6.452;2023-02-28T15:16:45;3.47;;;1.30;;
54261;SDS011;40174;52.364;6.452;2023-02-28T15:19:16;3.90;;;1.25;;
54261;SDS011;40174;52.364;6.452;2023-02-28T15:21:49;3.17;;;1.23;;
54261;SDS011;40174;52.364;6.452;2023-02-28T15:24:20;2.58;;;1.00;;
54261;SDS011;40174;52.364;6.452;2023-02-28T15:26:53;3.90;;;1.40;;
54261;SDS011;40174;52.364;6.452;2023-02-28T15:29:23;4.03;;;1.40;;
54261;SDS011;40174;52.364;6.452;2023-02-28T15:31:55;2.72;;;1.10;;
54261;SDS011;40174;52.364;6.452;2023-02-28T15:34:26;4.40;;;1.48;;
54261;SDS011;40174;52.364;6.452;2023-02-28T15:36:57;1.48;;;0.90;;
54261;SDS011;40174;52.364;6.452;2023-02-28T15:39:24;1.75;;;0.73;;
54261;SDS011;40174;52.364;6.452;2023-02-28T15:44:37;3.47;;;1.10;;
54261;SDS011;40174;52.364;6.452;2023-02-28T15:47:05;3.78;;;1.52;;
54261;SDS011;40174;52.364;6.452;2023-02-28T15:49:37;2.83;;;1.00;;
54261;SDS011;40174;52.364;6.452;2023-02-28T15:52:10;2.88;;;0.98;;
54261;SDS011;40174;52.364;6.452;2023-02-28T15:54:40;1.85;;;0.93;;